sensor_id;sensor_type;location;lat;lon;timestamp;pressure;altitude;pressure_sealevel;temperature;humidity
52291;BME280;39663;45.432;28.050;2023-12-20T00:00:29;101442.03;;;14.31;39.86
52291;BME280;39663;45.432;28.050;2023-12-20T00:01:00;101441.35;;;14.10;39.90
52291;BME280;39663;45.432;28.050;2023-12-20T00:01:33;101441.78;;;14.32;39.61
52291;BME280;39663;45.432;28.050;2023-12-20T00:02:04;101438.11;;;14.32;39.64
52291;BME280;39663;45.432;28.050;2023-12-20T00:02:36;101440.67;;;14.32;39.16
52291;BME280;39663;45.432;28.050;2023-12-20T00:03:07;101438.47;;;14.25;39.24
52291;BME280;39663;45.432;28.050;2023-12-20T00:03:39;101438.47;;;14.13;39.18
52291;BME280;39663;45.432;28.050;2023-12-20T00:04:10;101437.87;;;14.36;39.80
52291;BME280;39663;45.432;28.050;2023-12-20T00:04:42;101434.10;;;14.39;39.55
52291;BME280;39663;45.432;28.050;2023-12-20T00:05:14;101434.35;;;14.38;39.69
52291;BME280;39663;45.432;28.050;2023-12-20T00:05:45;101433.79;;;14.40;39.62
52291;BME280;39663;45.432;28.050;2023-12-20T00:06:17;101429.14;;;14.10;37.71
52291;BME280;39663;45.432;28.050;2023-12-20T00:06:48;101433.59;;;14.29;39.40
52291;BME280;39663;45.432;28.050;2023-12-20T00:07:20;101435.79;;;14.25;39.68
52291;BME280;39663;45.432;28.050;2023-12-20T00:07:51;101436.18;;;14.26;39.45
52291;BME280;39663;45.432;28.050;2023-12-20T00:08:23;101435.78;;;14.10;39.35
52291;BME280;39663;45.432;28.050;2023-12-20T00:08:54;101438.44;;;14.27;39.11
52291;BME280;39663;45.432;28.050;2023-12-20T00:09:26;101436.95;;;14.30;39.47
52291;BME280;39663;45.432;28.050;2023-12-20T00:09:57;101437.72;;;14.07;39.29
52291;BME280;39663;45.432;28.050;2023-12-20T00:10:29;101437.08;;;14.12;38.88
52291;BME280;39663;45.432;28.050;2023-12-20T00:11:00;101435.14;;;14.34;39.23
52291;BME280;39663;45.432;28.050;2023-12-20T00:11:32;101435.38;;;14.16;39.22
52291;BME280;39663;45.432;28.050;2023-12-20T00:12:04;101435.36;;;14.08;39.19
52291;BME280;39663;45.432;28.050;2023-12-20T00:12:35;101432.16;;;14.31;39.01
52291;BME280;39663;45.432;28.050;2023-12-20T00:13:07;101433.48;;;14.29;39.29
52291;BME280;39663;45.432;28.050;2023-12-20T00:13:38;101432.55;;;14.30;39.14
52291;BME280;39663;45.432;28.050;2023-12-20T00:14:10;101434.20;;;14.07;39.08
52291;BME280;39663;45.432;28.050;2023-12-20T00:14:41;101432.52;;;14.33;38.84
52291;BME280;39663;45.432;28.050;2023-12-20T00:15:13;101430.51;;;14.31;39.60
52291;BME280;39663;45.432;28.050;2023-12-20T00:15:44;101430.32;;;14.33;38.91
52291;BME280;39663;45.432;28.050;2023-12-20T00:16:16;101430.27;;;14.22;39.78
52291;BME280;39663;45.432;28.050;2023-12-20T00:16:47;101431.18;;;14.03;39.65
52291;BME280;39663;45.432;28.050;2023-12-20T00:17:19;101429.35;;;14.25;39.21
52291;BME280;39663;45.432;28.050;2023-12-20T00:17:50;101430.38;;;14.23;39.19
52291;BME280;39663;45.432;28.050;2023-12-20T00:18:22;101431.11;;;14.25;39.85
52291;BME280;39663;45.432;28.050;2023-12-20T00:18:54;101426.82;;;14.25;39.38
52291;BME280;39663;45.432;28.050;2023-12-20T00:19:25;101426.51;;;14.17;39.29
52291;BME280;39663;45.432;28.050;2023-12-20T00:19:57;101427.05;;;13.98;39.40
52291;BME280;39663;45.432;28.050;2023-12-20T00:20:28;101427.16;;;14.25;39.34
52291;BME280;39663;45.432;28.050;2023-12-20T00:21:00;101424.79;;;14.19;39.40
52291;BME280;39663;45.432;28.050;2023-12-20T00:21:31;101422.83;;;14.23;39.40
52291;BME280;39663;45.432;28.050;2023-12-20T00:22:04;101424.69;;;13.99;39.61
52291;BME280;39663;45.432;28.050;2023-12-20T00:22:35;101421.23;;;13.98;39.23
52291;BME280;39663;45.432;28.050;2023-12-20T00:23:07;101420.98;;;14.19;39.47
52291;BME280;39663;45.432;28.050;2023-12-20T00:23:38;101420.84;;;13.98;39.23
52291;BME280;39663;45.432;28.050;2023-12-20T00:24:09;101418.66;;;14.22;38.47
52291;BME280;39663;45.432;28.050;2023-12-20T00:24:41;101421.02;;;14.23;39.51
52291;BME280;39663;45.432;28.050;2023-12-20T00:25:12;101418.69;;;14.20;39.63
52291;BME280;39663;45.432;28.050;2023-12-20T00:25:44;101413.93;;;14.04;39.31
52291;BME280;39663;45.432;28.050;2023-12-20T00:26:16;101417.63;;;13.88;39.57
52291;BME280;39663;45.432;28.050;2023-12-20T00:26:47;101415.54;;;14.06;39.57
52291;BME280;39663;45.432;28.050;2023-12-20T00:27:19;101411.82;;;13.91;40.08
52291;BME280;39663;45.432;28.050;2023-12-20T00:27:51;101412.17;;;13.94;40.38
52291;BME280;39663;45.432;28.050;2023-12-20T00:28:23;101410.92;;;14.10;40.63
52291;BME280;39663;45.432;28.050;2023-12-20T00:28:54;101409.27;;;13.93;39.82
52291;BME280;39663;45.432;28.050;2023-12-20T00:29:26;101410.57;;;13.95;40.53
52291;BME280;39663;45.432;28.050;2023-12-20T00:29:57;101409.06;;;14.21;40.21
52291;BME280;39663;45.432;28.050;2023-12-20T00:30:28;101409.66;;;13.82;40.53
52291;BME280;39663;45.432;28.050;2023-12-20T00:31:00;101409.92;;;14.02;39.92
52291;BME280;39663;45.432;28.050;2023-12-20T00:31:32;101411.26;;;14.01;40.20
52291;BME280;39663;45.432;28.050;2023-12-20T00:32:04;101411.54;;;13.80;40.16
52291;BME280;39663;45.432;28.050;2023-12-20T00:32:36;101407.00;;;14.06;40.44
52291;BME280;39663;45.432;28.050;2023-12-20T00:33:07;101410.63;;;14.05;40.34
52291;BME280;39663;45.432;28.050;2023-12-20T00:33:39;101408.28;;;13.99;40.40
52291;BME280;39663;45.432;28.050;2023-12-20T00:34:10;101405.58;;;14.03;40.19
52291;BME280;39663;45.432;28.050;2023-12-20T00:34:42;101405.77;;;14.02;39.65
52291;BME280;39663;45.432;28.050;2023-12-20T00:35:14;101406.37;;;14.31;40.10
52291;BME280;39663;45.432;28.050;2023-12-20T00:35:46;101399.61;;;13.99;40.19
52291;BME280;39663;45.432;28.050;2023-12-20T00:36:17;101401.02;;;14.20;40.48
52291;BME280;39663;45.432;28.050;2023-12-20T00:36:49;101401.39;;;13.82;40.14
52291;BME280;39663;45.432;28.050;2023-12-20T00:37:21;101399.35;;;13.96;39.61
52291;BME280;39663;45.432;28.050;2023-12-20T00:37:52;101398.51;;;13.79;39.99
52291;BME280;39663;45.432;28.050;2023-12-20T00:38:24;101399.02;;;13.85;40.58
52291;BME280;39663;45.432;28.050;2023-12-20T00:38:56;101398.16;;;13.87;40.29
52291;BME280;39663;45.432;28.050;2023-12-20T00:39:27;101400.24;;;14.06;40.65
52291;BME280;39663;45.432;28.050;2023-12-20T00:39:58;101396.55;;;13.83;40.72
52291;BME280;39663;45.432;28.050;2023-12-20T00:40:30;101397.91;;;14.04;40.56
52291;BME280;39663;45.432;28.050;2023-12-20T00:41:02;101391.68;;;14.20;40.55
52291;BME280;39663;45.432;28.050;2023-12-20T00:41:33;101392.03;;;13.84;40.55
52291;BME280;39663;45.432;28.050;2023-12-20T00:42:05;101390.81;;;14.00;40.52
52291;BME280;39663;45.432;28.050;2023-12-20T00:42:36;101389.39;;;13.97;40.29
52291;BME280;39663;45.432;28.050;2023-12-20T00:43:08;101387.23;;;13.98;40.27
52291;BME280;39663;45.432;28.050;2023-12-20T00:43:40;101385.69;;;13.95;40.34
52291;BME280;39663;45.432;28.050;2023-12-20T00:44:11;101385.15;;;13.92;39.94
52291;BME280;39663;45.432;28.050;2023-12-20T00:44:43;101383.15;;;13.93;40.42
52291;BME280;39663;45.432;28.050;2023-12-20T00:45:15;101382.06;;;13.89;40.09
52291;BME280;39663;45.432;28.050;2023-12-20T00:45:46;101378.59;;;13.89;40.36
52291;BME280;39663;45.432;28.050;2023-12-20T00:46:18;101378.36;;;13.89;40.16
52291;BME280;39663;45.432;28.050;2023-12-20T00:46:49;101377.98;;;13.70;39.31
52291;BME280;39663;45.432;28.050;2023-12-20T00:47:20;101375.50;;;14.02;40.19
52291;BME280;39663;45.432;28.050;2023-12-20T00:47:52;101375.93;;;13.78;40.29
52291;BME280;39663;45.432;28.050;2023-12-20T00:48:24;101373.36;;;14.01;40.42
52291;BME280;39663;45.432;28.050;2023-12-20T00:48:56;101372.92;;;13.84;40.34
52291;BME280;39663;45.432;28.050;2023-12-20T00:49:27;101371.65;;;13.97;40.45
52291;BME280;39663;45.432;28.050;2023-12-20T00:49:59;101373.15;;;13.77;40.59
52291;BME280;39663;45.432;28.050;2023-12-20T00:50:30;101372.13;;;13.77;40.74
52291;BME280;39663;45.432;28.050;2023-12-20T00:51:02;101373.29;;;13.77;40.72
52291;BME280;39663;45.432;28.050;2023-12-20T00:51:33;101371.97;;;13.78;40.65
52291;BME280;39663;45.432;28.050;2023-12-20T00:52:05;101372.26;;;13.56;40.59
52291;BME280;39663;45.432;28.050;2023-12-20T00:52:36;101376.46;;;13.74;40.69
52291;BME280;39663;45.432;28.050;2023-12-20T00:53:08;101373.39;;;13.77;40.77
52291;BME280;39663;45.432;28.050;2023-12-20T00:53:39;101371.20;;;13.98;40.66
52291;BME280;39663;45.432;28.050;2023-12-20T00:54:11;101371.85;;;13.72;40.83
52291;BME280;39663;45.432;28.050;2023-12-20T00:54:42;101370.80;;;13.94;40.67
52291;BME280;39663;45.432;28.050;2023-12-20T00:55:14;101371.46;;;13.52;40.71
52291;BME280;39663;45.432;28.050;2023-12-20T00:55:45;101366.69;;;13.77;39.77
52291;BME280;39663;45.432;28.050;2023-12-20T00:56:17;101368.23;;;13.82;40.61
52291;BME280;39663;45.432;28.050;2023-12-20T00:56:48;101368.81;;;13.69;40.59
52291;BME280;39663;45.432;28.050;2023-12-20T00:57:20;101365.75;;;13.72;40.71
52291;BME280;39663;45.432;28.050;2023-12-20T00:57:51;101367.45;;;13.86;40.26
52291;BME280;39663;45.432;28.050;2023-12-20T00:58:22;101369.64;;;13.66;40.72
52291;BME280;39663;45.432;28.050;2023-12-20T00:58:54;101368.81;;;13.65;40.81
52291;BME280;39663;45.432;28.050;2023-12-20T01:09:36;101351.79;;;13.26;39.95
52291;BME280;39663;45.432;28.050;2023-12-20T01:10:08;101350.38;;;13.35;41.09
52291;BME280;39663;45.432;28.050;2023-12-20T01:10:39;101353.41;;;13.15;41.36
52291;BME280;39663;45.432;28.050;2023-12-20T01:11:10;101350.80;;;13.19;40.56
52291;BME280;39663;45.432;28.050;2023-12-20T01:11:42;101350.67;;;13.17;40.60
52291;BME280;39663;45.432;28.050;2023-12-20T01:12:14;101352.26;;;13.10;41.34
52291;BME280;39663;45.432;28.050;2023-12-20T01:12:45;101350.38;;;13.07;39.27
52291;BME280;39663;45.432;28.050;2023-12-20T01:13:17;101351.29;;;13.06;40.01
52291;BME280;39663;45.432;28.050;2023-12-20T01:13:48;101352.11;;;13.03;41.08
52291;BME280;39663;45.432;28.050;2023-12-20T01:14:20;101350.00;;;13.22;41.14
52291;BME280;39663;45.432;28.050;2023-12-20T01:14:51;101350.18;;;12.95;40.67
52291;BME280;39663;45.432;28.050;2023-12-20T01:15:23;101351.26;;;13.15;41.10
52291;BME280;39663;45.432;28.050;2023-12-20T01:15:54;101351.76;;;13.15;41.26
52291;BME280;39663;45.432;28.050;2023-12-20T01:16:25;101353.91;;;13.17;41.26
52291;BME280;39663;45.432;28.050;2023-12-20T01:16:57;101353.76;;;13.18;41.13
52291;BME280;39663;45.432;28.050;2023-12-20T01:17:28;101353.76;;;12.96;41.24
52291;BME280;39663;45.432;28.050;2023-12-20T01:18:00;101353.98;;;13.25;39.88
52291;BME280;39663;45.432;28.050;2023-12-20T01:18:31;101352.12;;;13.15;41.06
52291;BME280;39663;45.432;28.050;2023-12-20T01:19:02;101353.54;;;13.14;41.26
52291;BME280;39663;45.432;28.050;2023-12-20T01:19:34;101351.44;;;13.12;41.06
52291;BME280;39663;45.432;28.050;2023-12-20T01:20:06;101352.81;;;13.00;40.87
52291;BME280;39663;45.432;28.050;2023-12-20T01:20:38;101352.57;;;12.90;40.98
52291;BME280;39663;45.432;28.050;2023-12-20T01:21:09;101353.24;;;12.98;40.38
52291;BME280;39663;45.432;28.050;2023-12-20T01:21:41;101352.09;;;12.91;40.95
52291;BME280;39663;45.432;28.050;2023-12-20T01:22:12;101351.71;;;13.06;41.18
52291;BME280;39663;45.432;28.050;2023-12-20T01:22:44;101351.28;;;12.89;41.21
52291;BME280;39663;45.432;28.050;2023-12-20T01:23:15;101350.46;;;13.12;40.16
52291;BME280;39663;45.432;28.050;2023-12-20T01:23:46;101346.37;;;12.94;40.84
52291;BME280;39663;45.432;28.050;2023-12-20T01:24:18;101347.39;;;13.10;41.06
52291;BME280;39663;45.432;28.050;2023-12-20T01:24:49;101345.17;;;12.68;41.01
52291;BME280;39663;45.432;28.050;2023-12-20T01:25:21;101344.05;;;13.05;41.27
52291;BME280;39663;45.432;28.050;2023-12-20T01:25:52;101342.86;;;12.90;41.19
52291;BME280;39663;45.432;28.050;2023-12-20T01:26:24;101338.67;;;13.11;41.32
52291;BME280;39663;45.432;28.050;2023-12-20T01:26:55;101339.87;;;12.90;41.26
52291;BME280;39663;45.432;28.050;2023-12-20T01:27:26;101336.34;;;13.11;41.32
52291;BME280;39663;45.432;28.050;2023-12-20T01:27:58;101333.50;;;13.13;41.44
52291;BME280;39663;45.432;28.050;2023-12-20T01:28:30;101331.08;;;13.15;40.88
52291;BME280;39663;45.432;28.050;2023-12-20T01:29:01;101333.30;;;13.14;40.59
52291;BME280;39663;45.432;28.050;2023-12-20T01:29:33;101329.61;;;12.94;40.19
52291;BME280;39663;45.432;28.050;2023-12-20T01:30:05;101333.25;;;13.10;41.40
52291;BME280;39663;45.432;28.050;2023-12-20T01:30:37;101331.67;;;12.67;41.12
52291;BME280;39663;45.432;28.050;2023-12-20T01:31:09;101331.24;;;12.74;40.83
52291;BME280;39663;45.432;28.050;2023-12-20T01:31:40;101329.08;;;13.04;40.23
52291;BME280;39663;45.432;28.050;2023-12-20T01:32:12;101324.80;;;13.01;40.65
52291;BME280;39663;45.432;28.050;2023-12-20T01:32:43;101329.75;;;12.95;41.26
52291;BME280;39663;45.432;28.050;2023-12-20T01:33:15;101326.58;;;13.16;40.41
52291;BME280;39663;45.432;28.050;2023-12-20T01:33:46;101325.27;;;12.94;40.46
52291;BME280;39663;45.432;28.050;2023-12-20T01:34:18;101324.97;;;13.10;40.70
52291;BME280;39663;45.432;28.050;2023-12-20T01:34:49;101317.05;;;13.38;40.41
52291;BME280;39663;45.432;28.050;2023-12-20T01:35:21;101316.38;;;13.23;41.25
52291;BME280;39663;45.432;28.050;2023-12-20T01:35:52;101313.79;;;13.23;41.31
52291;BME280;39663;45.432;28.050;2023-12-20T01:36:24;101312.03;;;13.33;41.36
52291;BME280;39663;45.432;28.050;2023-12-20T01:36:55;101310.88;;;13.25;41.37
52291;BME280;39663;45.432;28.050;2023-12-20T01:37:26;101307.19;;;13.55;41.05
52291;BME280;39663;45.432;28.050;2023-12-20T01:37:58;101306.31;;;13.37;41.44
52291;BME280;39663;45.432;28.050;2023-12-20T01:38:29;101306.20;;;13.21;41.18
52291;BME280;39663;45.432;28.050;2023-12-20T01:39:01;101304.28;;;13.22;41.45
52291;BME280;39663;45.432;28.050;2023-12-20T01:39:32;101304.22;;;13.49;41.35
52291;BME280;39663;45.432;28.050;2023-12-20T01:40:04;101302.51;;;13.57;41.11
52291;BME280;39663;45.432;28.050;2023-12-20T01:40:36;101304.01;;;13.80;40.79
52291;BME280;39663;45.432;28.050;2023-12-20T01:41:07;101304.15;;;13.48;40.85
52291;BME280;39663;45.432;28.050;2023-12-20T01:41:39;101303.10;;;13.96;40.72
52291;BME280;39663;45.432;28.050;2023-12-20T01:42:10;101304.94;;;13.52;39.91
52291;BME280;39663;45.432;28.050;2023-12-20T01:42:42;101302.96;;;13.79;39.83
52291;BME280;39663;45.432;28.050;2023-12-20T01:43:14;101299.46;;;14.05;40.10
52291;BME280;39663;45.432;28.050;2023-12-20T01:43:45;101300.33;;;13.85;39.61
52291;BME280;39663;45.432;28.050;2023-12-20T01:44:16;101299.48;;;13.85;39.80
52291;BME280;39663;45.432;28.050;2023-12-20T01:44:48;101298.47;;;13.92;39.59
52291;BME280;39663;45.432;28.050;2023-12-20T01:45:19;101297.51;;;13.96;39.84
52291;BME280;39663;45.432;28.050;2023-12-20T01:45:51;101295.84;;;13.95;39.35
52291;BME280;39663;45.432;28.050;2023-12-20T01:46:22;101295.90;;;13.73;39.31
52291;BME280;39663;45.432;28.050;2023-12-20T01:46:54;101295.55;;;13.97;39.33
52291;BME280;39663;45.432;28.050;2023-12-20T01:47:25;101294.19;;;13.65;38.72
52291;BME280;39663;45.432;28.050;2023-12-20T01:47:59;101292.94;;;13.79;39.19
52291;BME280;39663;45.432;28.050;2023-12-20T01:48:31;101288.40;;;13.84;39.30
52291;BME280;39663;45.432;28.050;2023-12-20T01:49:02;101289.91;;;13.79;39.03
52291;BME280;39663;45.432;28.050;2023-12-20T01:49:34;101291.58;;;13.71;38.69
52291;BME280;39663;45.432;28.050;2023-12-20T01:50:07;101291.08;;;13.95;37.85
52291;BME280;39663;45.432;28.050;2023-12-20T01:50:40;101292.25;;;13.72;38.79
52291;BME280;39663;45.432;28.050;2023-12-20T01:51:11;101289.07;;;13.97;38.55
52291;BME280;39663;45.432;28.050;2023-12-20T01:51:44;101287.51;;;13.68;38.54
52291;BME280;39663;45.432;28.050;2023-12-20T01:52:17;101289.19;;;13.97;38.61
52291;BME280;39663;45.432;28.050;2023-12-20T01:52:48;101286.34;;;13.95;38.71
52291;BME280;39663;45.432;28.050;2023-12-20T01:53:22;101285.82;;;13.72;38.78
52291;BME280;39663;45.432;28.050;2023-12-20T01:53:55;101286.99;;;13.69;38.57
52291;BME280;39663;45.432;28.050;2023-12-20T01:54:29;101285.34;;;13.71;38.61
52291;BME280;39663;45.432;28.050;2023-12-20T01:55:01;101284.34;;;13.48;38.16
52291;BME280;39663;45.432;28.050;2023-12-20T01:55:36;101285.64;;;13.93;38.52
52291;BME280;39663;45.432;28.050;2023-12-20T01:56:07;101284.93;;;13.74;38.05
52291;BME280;39663;45.432;28.050;2023-12-20T01:56:40;101286.40;;;13.83;37.15
52291;BME280;39663;45.432;28.050;2023-12-20T01:57:12;101284.51;;;13.48;38.65
52291;BME280;39663;45.432;28.050;2023-12-20T01:57:44;101287.91;;;13.68;38.12
52291;BME280;39663;45.432;28.050;2023-12-20T01:58:17;101288.45;;;13.41;37.88
52291;BME280;39663;45.432;28.050;2023-12-20T01:58:48;101285.92;;;13.68;38.37
52291;BME280;39663;45.432;28.050;2023-12-20T02:01:42;101281.69;;;13.00;38.61
52291;BME280;39663;45.432;28.050;2023-12-20T02:02:14;101284.48;;;13.29;37.41
52291;BME280;39663;45.432;28.050;2023-12-20T02:02:46;101280.80;;;12.92;38.68
52291;BME280;39663;45.432;28.050;2023-12-20T02:03:18;101278.42;;;12.97;38.73
52291;BME280;39663;45.432;28.050;2023-12-20T02:03:50;101279.39;;;12.91;38.78
52291;BME280;39663;45.432;28.050;2023-12-20T02:04:22;101277.99;;;12.92;38.52
52291;BME280;39663;45.432;28.050;2023-12-20T02:04:53;101276.91;;;12.81;38.44
52291;BME280;39663;45.432;28.050;2023-12-20T02:05:25;101279.45;;;12.70;38.68
52291;BME280;39663;45.432;28.050;2023-12-20T02:05:57;101281.01;;;12.63;38.49
52291;BME280;39663;45.432;28.050;2023-12-20T02:06:30;101281.85;;;12.73;38.80
52291;BME280;39663;45.432;28.050;2023-12-20T02:07:03;101279.72;;;12.80;39.31
52291;BME280;39663;45.432;28.050;2023-12-20T02:07:34;101279.64;;;12.86;39.23
52291;BME280;39663;45.432;28.050;2023-12-20T02:08:06;101277.57;;;12.74;38.83
52291;BME280;39663;45.432;28.050;2023-12-20T02:08:38;101275.38;;;13.06;38.85
52291;BME280;39663;45.432;28.050;2023-12-20T02:09:09;101278.90;;;12.94;38.47
52291;BME280;39663;45.432;28.050;2023-12-20T02:09:41;101277.32;;;13.40;37.98
52291;BME280;39663;45.432;28.050;2023-12-20T02:10:13;101275.27;;;12.59;38.47
52291;BME280;39663;45.432;28.050;2023-12-20T02:10:44;101275.47;;;13.05;38.55
52291;BME280;39663;45.432;28.050;2023-12-20T02:11:16;101275.67;;;13.17;37.63
52291;BME280;39663;45.432;28.050;2023-12-20T02:11:48;101273.39;;;13.42;38.05
52291;BME280;39663;45.432;28.050;2023-12-20T02:12:20;101273.23;;;13.19;38.15
52291;BME280;39663;45.432;28.050;2023-12-20T02:12:53;101272.33;;;13.34;38.29
52291;BME280;39663;45.432;28.050;2023-12-20T02:13:24;101267.26;;;13.20;38.57
52291;BME280;39663;45.432;28.050;2023-12-20T02:13:56;101268.99;;;12.48;36.89
52291;BME280;39663;45.432;28.050;2023-12-20T02:14:28;101264.69;;;12.17;38.14
52291;BME280;39663;45.432;28.050;2023-12-20T02:14:59;101265.25;;;12.70;37.53
52291;BME280;39663;45.432;28.050;2023-12-20T02:15:31;101264.84;;;12.72;35.36
52291;BME280;39663;45.432;28.050;2023-12-20T02:16:03;101262.90;;;12.79;37.79
52291;BME280;39663;45.432;28.050;2023-12-20T02:16:34;101262.41;;;12.82;38.49
52291;BME280;39663;45.432;28.050;2023-12-20T02:17:06;101263.92;;;12.59;38.80
52291;BME280;39663;45.432;28.050;2023-12-20T02:17:39;101263.84;;;12.52;38.38
52291;BME280;39663;45.432;28.050;2023-12-20T02:18:11;101260.70;;;12.66;38.63
52291;BME280;39663;45.432;28.050;2023-12-20T02:18:43;101260.99;;;12.85;38.55
52291;BME280;39663;45.432;28.050;2023-12-20T02:19:15;101260.30;;;12.93;39.00
52291;BME280;39663;45.432;28.050;2023-12-20T02:19:49;101258.51;;;13.19;38.35
52291;BME280;39663;45.432;28.050;2023-12-20T02:20:20;101255.51;;;12.75;38.59
52291;BME280;39663;45.432;28.050;2023-12-20T02:20:52;101257.65;;;12.89;38.76
52291;BME280;39663;45.432;28.050;2023-12-20T02:21:25;101254.32;;;13.20;38.59
52291;BME280;39663;45.432;28.050;2023-12-20T02:22:06;101256.08;;;13.25;38.60
52291;BME280;39663;45.432;28.050;2023-12-20T02:22:38;101253.85;;;13.10;38.78
52291;BME280;39663;45.432;28.050;2023-12-20T02:23:09;101252.13;;;13.23;38.60
52291;BME280;39663;45.432;28.050;2023-12-20T02:23:40;101250.28;;;13.02;38.59
52291;BME280;39663;45.432;28.050;2023-12-20T02:24:12;101250.86;;;13.21;39.35
52291;BME280;39663;45.432;28.050;2023-12-20T02:24:43;101249.54;;;12.87;37.69
52291;BME280;39663;45.432;28.050;2023-12-20T02:25:15;101247.90;;;12.83;39.07
52291;BME280;39663;45.432;28.050;2023-12-20T02:25:47;101248.55;;;13.21;37.18
52291;BME280;39663;45.432;28.050;2023-12-20T02:26:18;101244.21;;;13.08;38.79
52291;BME280;39663;45.432;28.050;2023-12-20T02:26:50;101249.98;;;12.54;39.49
52291;BME280;39663;45.432;28.050;2023-12-20T02:27:23;101244.97;;;12.93;37.75
52291;BME280;39663;45.432;28.050;2023-12-20T02:27:55;101242.94;;;12.77;36.82
52291;BME280;39663;45.432;28.050;2023-12-20T02:28:26;101241.81;;;12.67;39.06
52291;BME280;39663;45.432;28.050;2023-12-20T02:28:59;101242.65;;;12.88;39.05
52291;BME280;39663;45.432;28.050;2023-12-20T02:29:31;101242.69;;;12.79;39.24
52291;BME280;39663;45.432;28.050;2023-12-20T02:30:04;101240.76;;;12.53;39.02
52291;BME280;39663;45.432;28.050;2023-12-20T02:30:35;101242.49;;;12.72;39.16
52291;BME280;39663;45.432;28.050;2023-12-20T02:31:07;101239.92;;;12.88;39.32
52291;BME280;39663;45.432;28.050;2023-12-20T02:31:38;101238.75;;;12.70;39.42
52291;BME280;39663;45.432;28.050;2023-12-20T02:32:10;101240.07;;;12.74;39.77
52291;BME280;39663;45.432;28.050;2023-12-20T02:32:41;101238.23;;;12.97;39.93
52291;BME280;39663;45.432;28.050;2023-12-20T02:33:13;101238.96;;;13.02;39.58
52291;BME280;39663;45.432;28.050;2023-12-20T02:33:45;101240.64;;;13.01;39.83
52291;BME280;39663;45.432;28.050;2023-12-20T02:34:16;101239.45;;;13.02;39.88
52291;BME280;39663;45.432;28.050;2023-12-20T02:34:48;101236.87;;;12.95;39.70
52291;BME280;39663;45.432;28.050;2023-12-20T02:35:19;101237.89;;;13.11;38.85
52291;BME280;39663;45.432;28.050;2023-12-20T02:35:51;101237.80;;;12.92;39.74
52291;BME280;39663;45.432;28.050;2023-12-20T02:36:22;101238.66;;;12.94;39.65
52291;BME280;39663;45.432;28.050;2023-12-20T02:36:54;101236.45;;;13.14;39.64
52291;BME280;39663;45.432;28.050;2023-12-20T02:37:25;101236.93;;;13.03;37.96
52291;BME280;39663;45.432;28.050;2023-12-20T02:37:56;101237.75;;;13.02;39.66
52291;BME280;39663;45.432;28.050;2023-12-20T02:38:28;101236.02;;;13.05;39.53
52291;BME280;39663;45.432;28.050;2023-12-20T02:38:59;101239.68;;;12.97;39.92
52291;BME280;39663;45.432;28.050;2023-12-20T02:39:31;101237.46;;;12.97;39.90
52291;BME280;39663;45.432;28.050;2023-12-20T02:40:03;101240.01;;;13.00;39.43
52291;BME280;39663;45.432;28.050;2023-12-20T02:40:34;101237.99;;;12.97;39.64
52291;BME280;39663;45.432;28.050;2023-12-20T02:41:06;101239.00;;;12.75;38.61
52291;BME280;39663;45.432;28.050;2023-12-20T02:41:37;101234.78;;;12.99;39.37
52291;BME280;39663;45.432;28.050;2023-12-20T02:42:08;101236.05;;;12.76;39.82
52291;BME280;39663;45.432;28.050;2023-12-20T02:42:40;101236.02;;;12.74;39.81
52291;BME280;39663;45.432;28.050;2023-12-20T02:43:11;101236.03;;;12.98;39.87
52291;BME280;39663;45.432;28.050;2023-12-20T02:43:43;101237.00;;;12.70;40.01
52291;BME280;39663;45.432;28.050;2023-12-20T02:44:14;101236.61;;;12.77;40.06
52291;BME280;39663;45.432;28.050;2023-12-20T02:44:46;101240.03;;;12.79;40.08
52291;BME280;39663;45.432;28.050;2023-12-20T02:45:17;101238.21;;;12.96;40.23
52291;BME280;39663;45.432;28.050;2023-12-20T02:45:48;101237.93;;;12.93;39.72
52291;BME280;39663;45.432;28.050;2023-12-20T02:46:20;101239.06;;;12.96;39.79
52291;BME280;39663;45.432;28.050;2023-12-20T02:46:51;101234.68;;;12.94;39.91
52291;BME280;39663;45.432;28.050;2023-12-20T02:47:23;101233.97;;;12.66;39.91
52291;BME280;39663;45.432;28.050;2023-12-20T02:47:54;101235.01;;;12.90;39.99
52291;BME280;39663;45.432;28.050;2023-12-20T02:48:26;101232.65;;;12.89;40.06
52291;BME280;39663;45.432;28.050;2023-12-20T02:48:57;101232.64;;;12.86;40.12
52291;BME280;39663;45.432;28.050;2023-12-20T02:49:28;101232.09;;;12.74;40.16
52291;BME280;39663;45.432;28.050;2023-12-20T02:50:00;101231.16;;;12.93;40.06
52291;BME280;39663;45.432;28.050;2023-12-20T02:50:31;101227.48;;;12.99;40.07
52291;BME280;39663;45.432;28.050;2023-12-20T02:51:03;101227.13;;;12.97;38.75
52291;BME280;39663;45.432;28.050;2023-12-20T02:51:34;101227.80;;;12.73;39.66
52291;BME280;39663;45.432;28.050;2023-12-20T02:52:06;101226.99;;;12.75;39.72
52291;BME280;39663;45.432;28.050;2023-12-20T02:52:37;101225.94;;;12.67;39.67
52291;BME280;39663;45.432;28.050;2023-12-20T02:53:09;101226.28;;;12.86;39.35
52291;BME280;39663;45.432;28.050;2023-12-20T02:53:40;101221.99;;;12.65;39.74
52291;BME280;39663;45.432;28.050;2023-12-20T02:54:12;101225.62;;;12.77;39.05
52291;BME280;39663;45.432;28.050;2023-12-20T02:54:43;101221.83;;;12.63;39.92
52291;BME280;39663;45.432;28.050;2023-12-20T02:55:15;101223.57;;;12.82;40.16
52291;BME280;39663;45.432;28.050;2023-12-20T02:55:46;101222.44;;;12.84;39.19
52291;BME280;39663;45.432;28.050;2023-12-20T02:56:17;101221.65;;;12.66;39.85